TimeCDT,TemperatureF,Dew PointF,Humidity,Sea Level PressureIn,VisibilityMPH,Wind Direction,Wind SpeedMPH,Gust SpeedMPH,PrecipitationIn,Events,Conditions,WindDirDegrees,DateUTC
12:15 AM,67.3,60.4,79,29.85,10.0,SSE,17.3,23.0,N/A,,Scattered Clouds,160,2014-04-13 05:15:00
12:35 AM,66.6,60.8,82,29.85,10.0,SSE,16.1,23.0,N/A,,Scattered Clouds,160,2014-04-13 05:35:00
12:55 AM,66.2,60.3,81,29.84,10.0,SSE,15.0,21.9,N/A,,Clear,150,2014-04-13 05:55:00
1:15 AM,65.5,60.1,83,29.84,10.0,SSE,17.3,23.0,N/A,,Clear,160,2014-04-13 06:15:00
1:35 AM,65.1,60.1,84,29.84,10.0,South,13.8,20.7,N/A,,Clear,170,2014-04-13 06:35:00
1:55 AM,64.8,59.9,84,29.84,10.0,South,13.8,17.3,N/A,,Clear,170,2014-04-13 06:55:00
2:15 AM,64.6,60.1,85,29.84,10.0,South,15.0,-,N/A,,Clear,170,2014-04-13 07:15:00
2:35 AM,64.4,60.1,86,29.84,10.0,South,12.7,19.6,N/A,,Mostly Cloudy,170,2014-04-13 07:35:00
2:55 AM,64.4,60.1,86,29.84,10.0,South,13.8,-,N/A,,Mostly Cloudy,170,2014-04-13 07:55:00
3:15 AM,64.6,60.1,85,29.84,10.0,South,12.7,23.0,N/A,,Mostly Cloudy,170,2014-04-13 08:15:00
3:35 AM,64.6,60.3,86,29.83,10.0,South,12.7,-,N/A,,Mostly Cloudy,170,2014-04-13 08:35:00
3:55 AM,64.9,60.4,85,29.83,10.0,South,11.5,17.3,N/A,,Overcast,180,2014-04-13 08:55:00
4:15 AM,64.9,60.8,86,29.83,10.0,South,9.2,-,N/A,,Overcast,180,2014-04-13 09:15:00
4:35 AM,65.3,61.0,86,29.84,10.0,South,10.4,-,N/A,,Overcast,180,2014-04-13 09:35:00
4:55 AM,65.3,61.3,87,29.84,10.0,South,8.1,-,N/A,,Overcast,190,2014-04-13 09:55:00
5:15 AM,65.3,61.7,88,29.84,10.0,South,6.9,-,N/A,,Overcast,170,2014-04-13 10:15:00
5:35 AM,65.3,61.7,88,29.84,10.0,SSE,6.9,-,N/A,,Overcast,160,2014-04-13 10:35:00
5:55 AM,65.3,61.9,89,29.84,10.0,SSE,6.9,-,N/A,,Overcast,150,2014-04-13 10:55:00
6:15 AM,65.3,62.1,89,29.84,10.0,SSE,8.1,-,N/A,,Overcast,150,2014-04-13 11:15:00
6:35 AM,64.9,62.2,91,29.83,10.0,SE,5.8,-,N/A,,Overcast,140,2014-04-13 11:35:00
6:55 AM,64.8,62.2,92,29.83,10.0,SE,6.9,-,N/A,,Overcast,140,2014-04-13 11:55:00
7:15 AM,64.8,62.6,93,29.83,10.0,SE,5.8,-,N/A,,Overcast,140,2014-04-13 12:15:00
7:35 AM,64.8,62.6,93,29.81,10.0,SE,12.7,-,N/A,,Overcast,140,2014-04-13 12:35:00
7:55 AM,64.9,62.8,93,29.79,10.0,SE,13.8,19.6,N/A,,Mostly Cloudy,140,2014-04-13 12:55:00
8:15 AM,66.0,63.5,92,29.81,10.0,SSE,8.1,17.3,N/A,,Scattered Clouds,150,2014-04-13 13:15:00
8:35 AM,66.7,64.4,92,29.81,10.0,SSE,6.9,-,N/A,,Overcast,150,2014-04-13 13:35:00
8:55 AM,67.3,64.6,91,29.80,10.0,SE,12.7,17.3,N/A,,Overcast,140,2014-04-13 13:55:00
9:15 AM,68.2,65.1,90,29.79,10.0,SSE,15.0,20.7,N/A,,Overcast,150,2014-04-13 14:15:00
9:35 AM,68.9,65.5,89,29.79,10.0,SSE,13.8,21.9,N/A,,Overcast,160,2014-04-13 14:35:00
9:55 AM,70.2,66.2,87,29.79,10.0,SSE,16.1,24.2,N/A,,Overcast,160,2014-04-13 14:55:00
10:15 AM,71.2,66.6,85,29.81,10.0,South,16.1,20.7,N/A,,Overcast,170,2014-04-13 15:15:00
10:35 AM,71.6,66.7,85,29.80,10.0,South,16.1,23.0,N/A,,Overcast,170,2014-04-13 15:35:00
10:55 AM,72.0,66.9,84,29.80,10.0,South,16.1,23.0,N/A,,Overcast,170,2014-04-13 15:55:00
11:15 AM,72.5,67.3,84,29.81,10.0,South,13.8,20.7,N/A,Thunderstorm,Overcast,170,2014-04-13 16:15:00
11:35 AM,72.5,67.1,83,29.81,10.0,South,10.4,-,N/A,,Overcast,180,2014-04-13 16:35:00
11:55 AM,72.1,67.1,84,29.81,10.0,South,13.8,20.7,N/A,,Overcast,180,2014-04-13 16:55:00
12:15 PM,71.6,67.1,86,29.81,10.0,South,9.2,17.3,N/A,,Overcast,190,2014-04-13 17:15:00
12:35 PM,72.1,67.3,85,29.81,10.0,South,12.7,-,N/A,,Light Drizzle,180,2014-04-13 17:35:00
1:15 PM,73.9,67.6,81,29.79,10.0,South,13.8,20.7,N/A,,Mostly Cloudy,190,2014-04-13 18:15:00
1:35 PM,74.3,67.8,80,29.78,10.0,South,13.8,-,N/A,,Overcast,190,2014-04-13 18:35:00
1:55 PM,72.3,68.4,87,29.78,4.0,South,11.5,23.0,0.07,Rain,Heavy Rain,180,2014-04-13 18:55:00
2:15 PM,72.1,69.1,90,29.78,10.0,SSW,9.2,-,N/A,,Overcast,200,2014-04-13 19:15:00
2:35 PM,73.0,69.4,88,29.77,10.0,SSW,8.1,-,N/A,,Mostly Cloudy,200,2014-04-13 19:35:00
2:55 PM,72.5,68.9,88,29.76,10.0,South,12.7,17.3,N/A,Rain,Light Rain,180,2014-04-13 19:55:00
3:15 PM,71.6,68.9,91,29.71,7.0,SE,12.7,-,0.01,Rain,Rain,140,2014-04-13 20:15:00
3:35 PM,71.1,68.7,92,29.69,10.0,SSE,12.7,25.3,0.02,,Light Drizzle,150,2014-04-13 20:35:00
3:55 PM,71.2,68.4,91,29.67,10.0,SSE,18.4,25.3,0.02,,Scattered Clouds,160,2014-04-13 20:55:00
4:35 PM,72.0,67.8,87,29.65,10.0,SSE,17.3,24.2,N/A,,Clear,160,2014-04-13 21:35:00
4:55 PM,72.9,68.4,86,29.63,10.0,SSE,18.4,25.3,N/A,,Scattered Clouds,150,2014-04-13 21:55:00
5:15 PM,72.9,68.7,87,29.64,10.0,SSE,20.7,27.6,N/A,,Scattered Clouds,160,2014-04-13 22:15:00
5:35 PM,73.4,68.4,84,29.64,10.0,South,18.4,28.8,N/A,,Mostly Cloudy,170,2014-04-13 22:35:00
5:55 PM,73.6,68.4,84,29.63,10.0,SSE,18.4,25.3,N/A,,Overcast,160,2014-04-13 22:55:00
6:15 PM,74.3,68.4,82,29.64,10.0,SSE,16.1,25.3,N/A,,Overcast,160,2014-04-13 23:15:00
6:35 PM,73.6,68.2,83,29.65,10.0,South,17.3,23.0,N/A,,Overcast,170,2014-04-13 23:35:00
6:55 PM,73.2,68.0,84,29.66,10.0,South,16.1,23.0,N/A,,Overcast,170,2014-04-13 23:55:00
7:15 PM,73.0,67.8,84,29.67,10.0,South,12.7,20.7,N/A,,Overcast,170,2014-04-14 00:15:00
7:35 PM,72.9,67.5,83,29.69,10.0,South,15.0,18.4,N/A,,Overcast,190,2014-04-14 00:35:00
7:55 PM,72.5,67.5,84,29.69,10.0,South,6.9,-,N/A,,Overcast,170,2014-04-14 00:55:00
8:15 PM,71.8,67.1,85,29.69,10.0,South,8.1,-,N/A,,Mostly Cloudy,170,2014-04-14 01:15:00
8:35 PM,71.8,67.1,85,29.69,10.0,South,10.4,-,N/A,,Scattered Clouds,170,2014-04-14 01:35:00
8:55 PM,71.6,67.1,86,29.69,10.0,South,11.5,-,N/A,,Clear,170,2014-04-14 01:55:00
9:15 PM,71.2,67.1,87,29.69,10.0,South,11.5,-,N/A,,Clear,170,2014-04-14 02:15:00
9:35 PM,71.1,67.1,87,29.68,10.0,SSE,10.4,-,N/A,,Clear,160,2014-04-14 02:35:00
9:55 PM,70.7,67.1,88,29.69,10.0,South,11.5,-,N/A,,Clear,170,2014-04-14 02:55:00
10:15 PM,70.7,67.3,89,29.68,10.0,South,15.0,-,N/A,,Clear,170,2014-04-14 03:15:00
10:35 PM,70.5,67.3,89,29.68,10.0,South,13.8,-,N/A,,Clear,170,2014-04-14 03:35:00
10:55 PM,70.7,67.5,89,29.69,10.0,South,11.5,-,N/A,,Clear,170,2014-04-14 03:55:00
11:15 PM,70.2,67.1,90,29.69,10.0,South,10.4,17.3,N/A,,Clear,170,2014-04-14 04:15:00
11:35 PM,70.2,67.5,91,29.68,10.0,South,12.7,17.3,N/A,,Mostly Cloudy,170,2014-04-14 04:35:00
11:55 PM,71.1,67.8,89,29.68,10.0,South,13.8,18.4,N/A,,Overcast,180,2014-04-14 04:55:00